Time;durP1;ratioP1;P1;durP2;ratioP2;P2;SDS_P1;SDS_P2;PMS_P1;PMS_P2;Temp;Humidity;BMP_temperature;BMP_pressure;BME280_temperature;BME280_humidity;BME280_pressure;Samples;Min_cycle;Max_cycle;Signal;HPM_P1;HPM_P2
2021/08/10 00:01:14;;;;;;;2.72;1.80;;;17.00;82.00;;;;;;4952456;29;20031;-67
2021/08/10 00:03:39;;;;;;;4.78;1.80;;;16.90;82.10;;;;;;4957060;28;20031;-67
2021/08/10 00:06:05;;;;;;;1.60;1.50;;;16.90;82.20;;;;;;4970652;28;20031;-67
2021/08/10 00:08:30;;;;;;;4.35;1.60;;;16.90;82.30;;;;;;4967385;28;20034;-67
2021/08/10 00:10:56;;;;;;;3.13;1.70;;;16.80;82.30;;;;;;4952185;29;20082;-67
2021/08/10 00:13:22;;;;;;;4.22;1.77;;;16.80;82.50;;;;;;4953415;28;20389;-67
2021/08/10 00:15:48;;;;;;;3.95;2.05;;;16.70;82.60;;;;;;4969663;28;20142;-67
2021/08/10 00:18:16;;;;;;;2.75;1.83;;;16.70;82.70;;;;;;4970585;28;20098;-67
2021/08/10 00:20:42;;;;;;;3.28;2.10;;;16.70;82.90;;;;;;4970867;28;20018;-67
2021/08/10 00:23:07;;;;;;;5.57;3.50;;;16.60;83.00;;;;;;4962888;28;20395;-67
2021/08/10 00:25:34;;;;;;;4.28;2.78;;;16.60;83.20;;;;;;4950884;29;20034;-67
2021/08/10 00:28:00;;;;;;;3.42;2.42;;;16.60;83.30;;;;;;4958059;28;20029;-67
2021/08/10 00:30:27;;;;;;;6.55;2.47;;;16.60;83.20;;;;;;4970704;28;20023;-67
2021/08/10 00:32:53;;;;;;;3.38;3.08;;;16.60;83.30;;;;;;4970615;28;20026;-67
2021/08/10 00:35:19;;;;;;;5.57;2.80;;;16.60;83.50;;;;;;4970073;28;20027;-67
2021/08/10 00:37:44;;;;;;;4.97;3.08;;;16.50;83.60;;;;;;4967665;28;20059;-67
2021/08/10 00:40:12;;;;;;;4.65;3.00;;;16.60;83.80;;;;;;4951895;29;20059;-67
2021/08/10 00:42:37;;;;;;;3.90;2.75;;;16.60;83.90;;;;;;4964164;28;20053;-67
2021/08/10 00:45:04;;;;;;;6.20;3.00;;;16.50;83.90;;;;;;4952203;28;20118;-67
2021/08/10 00:47:30;;;;;;;4.40;2.55;;;16.50;84.00;;;;;;4959687;28;20512;-67
2021/08/10 00:49:55;;;;;;;3.22;2.80;;;16.40;84.10;;;;;;4970949;28;20038;-67
2021/08/10 00:52:21;;;;;;;6.57;2.75;;;16.40;84.20;;;;;;4965102;28;20408;-67
2021/08/10 00:54:46;;;;;;;4.40;2.67;;;16.40;84.30;;;;;;4956147;28;20392;-67
2021/08/10 00:57:12;;;;;;;3.28;2.83;;;16.40;84.30;;;;;;4956279;28;20034;-67
2021/08/10 00:59:38;;;;;;;4.10;2.95;;;16.30;84.30;;;;;;4961447;28;20043;-67
2021/08/10 01:02:04;;;;;;;4.40;2.60;;;16.30;84.40;;;;;;4955628;29;20038;-67
2021/08/10 01:04:30;;;;;;;3.60;2.70;;;16.20;84.50;;;;;;4965642;28;20113;-67
2021/08/10 01:07:07;;;;;;;3.88;2.80;;;16.10;84.60;;;;;;4965182;28;20103;-67
2021/08/10 01:09:39;;;;;;;4.25;2.97;;;16.10;85.10;;;;;;4937822;29;20476;-67
2021/08/10 01:12:20;;;;;;;3.93;2.43;;;16.00;85.10;;;;;;4955750;28;20027;-67
2021/08/10 01:15:01;;;;;;;6.15;2.90;;;16.00;85.20;;;;;;4954259;29;20051;-67
2021/08/10 01:17:39;;;;;;;4.63;2.10;;;15.90;85.20;;;;;;4967131;28;20427;-67
2021/08/10 01:20:37;;;;;;;2.83;2.28;;;15.80;85.30;;;;;;4956430;28;20019;-67
2021/08/10 01:23:06;;;;;;;3.50;2.22;;;15.80;85.50;;;;;;4932124;28;20039;-67
2021/08/10 01:26:10;;;;;;;4.90;2.28;;;15.80;85.30;;;;;;4968436;28;20031;-67
2021/08/10 01:29:08;;;;;;;6.30;2.47;;;15.80;85.50;;;;;;4945951;28;20046;-67
2021/08/10 01:31:40;;;;;;;2.53;2.13;;;15.80;85.40;;;;;;4961724;28;20027;-68
2021/08/10 01:34:45;;;;;;;4.40;2.55;;;15.70;85.20;;;;;;4954402;29;20031;-67
2021/08/10 01:37:15;;;;;;;4.13;2.03;;;15.70;85.50;;;;;;4970722;28;20490;-67
2021/08/10 01:39:43;;;;;;;3.95;2.00;;;15.70;85.40;;;;;;4956454;28;20029;-67
2021/08/10 01:42:11;;;;;;;3.15;2.22;;;15.70;85.50;;;;;;4957973;28;20034;-67
2021/08/10 01:44:36;;;;;;;7.15;2.60;;;15.70;85.40;;;;;;4953366;29;20027;-67
2021/08/10 01:47:03;;;;;;;2.25;2.03;;;15.70;85.40;;;;;;4955345;28;20094;-67
2021/08/10 01:51:58;;;;;;;3.30;2.17;;;15.60;85.40;;;;;;5010831;28;20049;-69
2021/08/10 01:54:26;;;;;;;4.13;2.17;;;15.60;85.60;;;;;;5012075;28;20393;-69
2021/08/10 01:56:52;;;;;;;2.55;1.80;;;15.60;85.70;;;;;;4988551;28;20509;-69
2021/08/10 01:59:20;;;;;;;4.28;2.20;;;15.50;86.20;;;;;;5011993;28;20053;-69
2021/08/10 02:01:47;;;;;;;2.72;2.30;;;15.50;85.80;;;;;;5012271;28;20389;-70
2021/08/10 02:04:16;;;;;;;2.83;1.90;;;15.40;85.90;;;;;;5012137;28;20056;-69
2021/08/10 02:06:41;;;;;;;5.22;2.03;;;15.40;86.10;;;;;;5010897;28;20414;-69
2021/08/10 02:09:07;;;;;;;2.33;1.90;;;15.40;86.10;;;;;;5011936;28;20036;-69
2021/08/10 02:11:35;;;;;;;3.42;1.95;;;15.40;86.10;;;;;;5012021;28;20382;-69
2021/08/10 02:14:02;;;;;;;4.82;2.28;;;15.40;86.10;;;;;;5004272;28;20027;-69
2021/08/10 02:16:28;;;;;;;2.45;2.03;;;15.40;86.20;;;;;;5009480;28;20026;-69
2021/08/10 02:18:54;;;;;;;2.10;1.90;;;15.30;86.10;;;;;;5011548;28;20121;-69
2021/08/10 02:21:35;;;;;;;2.05;1.85;;;15.30;86.20;;;;;;5011735;28;20076;-69
2021/08/10 02:24:08;;;;;;;2.97;1.83;;;15.30;86.60;;;;;;5011895;28;20049;-69
2021/08/10 02:27:00;;;;;;;3.22;1.90;;;15.30;86.50;;;;;;5010703;28;20529;-69
2021/08/10 02:29:30;;;;;;;3.53;2.22;;;15.30;86.30;;;;;;5011446;28;20536;-69
2021/08/10 02:31:56;;;;;;;1.90;1.80;;;15.20;86.10;;;;;;5011468;28;20037;-69
2021/08/10 02:34:22;;;;;;;2.63;1.85;;;15.20;86.20;;;;;;5011548;28;20022;-70
2021/08/10 02:36:53;;;;;;;2.03;1.92;;;15.20;86.30;;;;;;5010079;28;20438;-69
2021/08/10 02:39:20;;;;;;;2.20;2.00;;;15.10;86.40;;;;;;5012010;28;20032;-69
2021/08/10 02:41:46;;;;;;;2.53;1.95;;;15.10;86.50;;;;;;5011497;28;20033;-69
2021/08/10 02:44:14;;;;;;;3.55;1.80;;;15.10;86.60;;;;;;5011580;28;20041;-69
2021/08/10 02:46:40;;;;;;;2.25;1.92;;;15.00;86.60;;;;;;5010179;28;20072;-69
2021/08/10 02:49:12;;;;;;;2.75;1.83;;;15.10;86.60;;;;;;5011066;28;20510;-69
2021/08/10 02:51:38;;;;;;;3.72;1.95;;;15.00;86.70;;;;;;5011094;28;20397;-69
2021/08/10 02:54:05;;;;;;;2.03;1.83;;;14.90;86.50;;;;;;5011387;28;20487;-70
2021/08/10 02:56:41;;;;;;;5.95;2.35;;;14.90;86.60;;;;;;5009885;28;20025;-70
2021/08/10 02:59:29;;;;;;;2.60;1.65;;;14.90;86.90;;;;;;4993225;28;20363;-69
2021/08/10 03:02:03;;;;;;;2.38;1.80;;;14.80;87.00;;;;;;5015241;28;20029;-69
2021/08/10 03:04:31;;;;;;;2.08;1.92;;;14.80;86.90;;;;;;5010853;28;20024;-69
2021/08/10 03:06:57;;;;;;;4.75;2.20;;;14.70;86.90;;;;;;5010159;28;20653;-70
2021/08/10 03:09:24;;;;;;;2.25;2.00;;;14.80;87.10;;;;;;5010793;28;20034;-70
2021/08/10 03:11:53;;;;;;;1.88;1.77;;;14.80;87.20;;;;;;5010288;28;20101;-69
2021/08/10 03:14:20;;;;;;;2.47;2.28;;;14.80;87.30;;;;;;5011131;28;20463;-69
2021/08/10 03:16:47;;;;;;;5.07;2.20;;;14.80;87.20;;;;;;5014694;28;20671;-70
2021/08/10 03:19:15;;;;;;;2.97;2.25;;;14.90;87.30;;;;;;5010112;28;20022;-70
2021/08/10 03:21:43;;;;;;;3.03;2.17;;;14.90;87.20;;;;;;5018424;28;20026;-70
2021/08/10 03:24:10;;;;;;;5.45;2.40;;;14.90;87.20;;;;;;5011064;28;20018;-70
2021/08/10 03:26:36;;;;;;;2.47;2.20;;;14.80;87.20;;;;;;5010495;28;20038;-70
2021/08/10 03:29:02;;;;;;;2.80;2.15;;;14.80;87.30;;;;;;5010824;28;20100;-71
2021/08/10 03:31:28;;;;;;;4.13;2.35;;;14.80;87.50;;;;;;5010905;28;20084;-71
2021/08/10 03:33:54;;;;;;;4.90;2.45;;;14.70;87.50;;;;;;5015624;28;20122;-70
2021/08/10 03:36:23;;;;;;;2.95;2.17;;;14.70;87.60;;;;;;5030228;28;20535;-70
2021/08/10 03:38:50;;;;;;;4.60;2.20;;;14.60;87.60;;;;;;5030407;28;20045;-69
2021/08/10 03:41:16;;;;;;;2.38;2.17;;;14.60;87.70;;;;;;5030536;28;20037;-72
2021/08/10 03:43:43;;;;;;;4.03;2.28;;;14.50;87.80;;;;;;5017868;28;20041;-70
2021/08/10 03:46:09;;;;;;;3.38;2.13;;;14.40;88.00;;;;;;5010492;28;20032;-70
2021/08/10 03:48:41;;;;;;;3.80;2.03;;;14.40;88.10;;;;;;5010364;28;20026;-70
2021/08/10 03:51:07;;;;;;;3.60;2.80;;;14.50;88.30;;;;;;5014628;28;20432;-70
2021/08/10 03:53:34;;;;;;;4.60;3.00;;;14.50;88.00;;;;;;5010427;28;20033;-70
2021/08/10 03:56:01;;;;;;;8.65;4.00;;;14.50;88.10;;;;;;5010445;28;20332;-72
2021/08/10 03:58:29;;;;;;;6.20;3.28;;;14.50;88.20;;;;;;5012311;28;20028;-70
2021/08/10 04:00:55;;;;;;;8.07;4.30;;;14.50;88.20;;;;;;5016048;28;20022;-69
2021/08/10 04:03:23;;;;;;;6.38;4.82;;;14.50;88.30;;;;;;5010718;28;20066;-70
2021/08/10 04:05:50;;;;;;;5.40;4.60;;;14.50;88.30;;;;;;5010061;28;20026;-70
2021/08/10 04:08:16;;;;;;;8.63;5.20;;;14.40;88.50;;;;;;5010478;28;20018;-70
2021/08/10 04:10:46;;;;;;;8.65;4.97;;;14.40;88.50;;;;;;5010439;28;20033;-69
2021/08/10 04:13:12;;;;;;;8.73;4.88;;;14.40;88.80;;;;;;5010421;28;20110;-70
2021/08/10 04:15:44;;;;;;;6.68;4.95;;;14.40;88.60;;;;;;5009996;28;20072;-70
2021/08/10 04:18:18;;;;;;;7.03;4.45;;;14.40;88.90;;;;;;5006384;28;20406;-70
2021/08/10 04:20:51;;;;;;;11.05;5.30;;;14.40;89.10;;;;;;5018149;28;20022;-70
2021/08/10 04:23:18;;;;;;;6.90;4.88;;;14.40;89.00;;;;;;5025409;28;20370;-69
2021/08/10 04:25:44;;;;;;;7.35;4.60;;;14.40;88.80;;;;;;5014083;28;20041;-69
2021/08/10 04:28:10;;;;;;;10.73;5.38;;;14.40;88.90;;;;;;5014546;28;20044;-70
2021/08/10 04:30:37;;;;;;;8.80;5.60;;;14.30;88.70;;;;;;5015306;28;20025;-69
2021/08/10 04:33:04;;;;;;;9.80;5.43;;;14.20;88.90;;;;;;5014627;28;20022;-70
2021/08/10 04:35:29;;;;;;;6.80;5.30;;;14.20;89.10;;;;;;5013733;28;20018;-69
2021/08/10 04:37:55;;;;;;;7.93;5.13;;;14.20;89.30;;;;;;5014508;28;20444;-72
2021/08/10 04:40:20;;;;;;;9.38;5.60;;;14.20;89.50;;;;;;4996899;28;20029;-69
2021/08/10 04:42:46;;;;;;;7.88;5.65;;;14.20;89.50;;;;;;5014608;28;20026;-69
2021/08/10 04:45:12;;;;;;;7.28;4.68;;;14.20;89.40;;;;;;5013723;28;20030;-69
2021/08/10 04:47:37;;;;;;;7.88;5.18;;;14.20;89.60;;;;;;5014613;28;20033;-69
2021/08/10 04:50:04;;;;;;;10.07;4.97;;;14.20;89.80;;;;;;5022387;28;20025;-69
2021/08/10 04:52:30;;;;;;;7.13;5.20;;;14.20;90.00;;;;;;5029826;28;20022;-70
2021/08/10 04:54:57;;;;;;;6.38;4.57;;;14.20;90.00;;;;;;5014021;28;20414;-73
2021/08/10 04:57:24;;;;;;;5.82;4.30;;;14.20;90.00;;;;;;5013900;28;20025;-69
2021/08/10 04:59:50;;;;;;;8.45;4.93;;;14.20;90.10;;;;;;5013744;28;20030;-70
2021/08/10 05:02:17;;;;;;;7.28;4.45;;;14.30;90.10;;;;;;5031615;28;20112;-69
2021/08/10 05:04:43;;;;;;;5.97;4.55;;;14.30;90.10;;;;;;5015849;28;20032;-69
2021/08/10 05:07:09;;;;;;;6.63;4.82;;;14.30;90.20;;;;;;5014106;28;20062;-70
2021/08/10 05:09:35;;;;;;;7.28;5.00;;;14.40;90.20;;;;;;5014204;28;20418;-69
2021/08/10 05:12:00;;;;;;;8.90;4.93;;;14.40;90.20;;;;;;5014431;28;20391;-70
2021/08/10 05:14:26;;;;;;;7.28;4.85;;;14.40;90.20;;;;;;5013942;28;20058;-70
2021/08/10 05:16:51;;;;;;;5.78;4.25;;;14.40;90.20;;;;;;4994527;28;20109;-70
2021/08/10 05:19:18;;;;;;;5.30;4.22;;;14.40;90.20;;;;;;5013481;28;20034;-69
2021/08/10 05:21:44;;;;;;;6.55;3.92;;;14.40;90.30;;;;;;5017935;28;20010;-69
2021/08/10 05:24:09;;;;;;;6.22;4.07;;;14.50;90.40;;;;;;5023501;28;20064;-69
2021/08/10 05:26:35;;;;;;;5.88;4.05;;;14.50;90.40;;;;;;5010768;28;20038;-69
2021/08/10 05:29:01;;;;;;;9.63;4.05;;;14.50;90.40;;;;;;5013269;28;20474;-69
2021/08/10 05:31:26;;;;;;;7.50;4.40;;;14.60;90.30;;;;;;5013535;28;20022;-69
2021/08/10 05:33:52;;;;;;;6.32;4.10;;;14.60;90.30;;;;;;5012778;28;20022;-69
2021/08/10 05:36:19;;;;;;;6.80;3.83;;;14.60;90.30;;;;;;5012067;28;20045;-69
2021/08/10 05:38:49;;;;;;;8.93;3.78;;;14.60;90.20;;;;;;5013488;28;20026;-69
2021/08/10 05:41:15;;;;;;;10.10;6.68;;;14.50;90.30;;;;;;5013260;28;20040;-69
2021/08/10 05:43:41;;;;;;;5.95;4.00;;;14.50;90.30;;;;;;5013379;28;20026;-69
2021/08/10 05:46:06;;;;;;;4.50;3.97;;;14.60;90.40;;;;;;5011874;28;20045;-70
2021/08/10 05:48:32;;;;;;;6.78;4.20;;;14.60;90.50;;;;;;5013260;28;20034;-69
2021/08/10 05:51:00;;;;;;;5.88;4.15;;;14.60;90.50;;;;;;5012512;28;20033;-70
2021/08/10 05:53:25;;;;;;;5.30;3.83;;;14.70;90.50;;;;;;5013024;28;20026;-70
2021/08/10 05:55:51;;;;;;;5.03;4.40;;;14.70;90.50;;;;;;5011181;28;20370;-70
2021/08/10 05:58:16;;;;;;;5.75;3.30;;;14.80;90.60;;;;;;5012950;28;20037;-70
2021/08/10 06:00:42;;;;;;;4.43;3.90;;;14.80;90.60;;;;;;5012595;28;20022;-69
2021/08/10 06:03:07;;;;;;;5.25;3.63;;;14.80;90.60;;;;;;5012799;28;20034;-69
2021/08/10 06:05:34;;;;;;;4.50;3.70;;;14.90;90.60;;;;;;5012181;28;20034;-69
2021/08/10 06:07:59;;;;;;;5.18;2.92;;;14.90;90.50;;;;;;5012814;28;20088;-70
2021/08/10 06:10:26;;;;;;;4.95;3.13;;;14.90;90.50;;;;;;5012869;28;20458;-69
2021/08/10 06:12:52;;;;;;;7.05;3.42;;;14.90;90.50;;;;;;5012503;28;20029;-69
2021/08/10 06:15:17;;;;;;;6.13;3.38;;;15.00;90.50;;;;;;5013566;28;20017;-70
2021/08/10 06:17:43;;;;;;;9.50;3.25;;;15.00;90.50;;;;;;5012600;28;20073;-69
2021/08/10 06:20:09;;;;;;;5.05;3.08;;;15.00;90.70;;;;;;5012652;28;20030;-69
2021/08/10 06:22:35;;;;;;;4.28;2.53;;;15.10;90.50;;;;;;5012696;28;20057;-70
2021/08/10 06:25:00;;;;;;;3.38;2.63;;;15.10;90.40;;;;;;5011586;28;20443;-69
2021/08/10 06:27:26;;;;;;;3.45;2.78;;;15.10;90.40;;;;;;5011861;28;20030;-69
2021/08/10 06:29:52;;;;;;;3.00;2.55;;;15.20;90.50;;;;;;4994323;28;20351;-70
2021/08/10 06:32:17;;;;;;;2.70;2.25;;;15.30;90.50;;;;;;5015334;28;20030;-70
2021/08/10 06:34:43;;;;;;;5.53;2.95;;;15.30;90.50;;;;;;5008524;28;20403;-69
2021/08/10 06:37:09;;;;;;;2.63;2.00;;;15.40;90.50;;;;;;5009183;28;20196;-69
2021/08/10 06:39:34;;;;;;;3.58;2.30;;;15.50;90.50;;;;;;5012046;28;20029;-69
2021/08/10 06:42:00;;;;;;;13.23;2.90;;;15.60;90.40;;;;;;5011575;28;20425;-69
2021/08/10 06:44:25;;;;;;;7.53;2.17;;;15.70;90.40;;;;;;5011668;28;20025;-69
2021/08/10 06:46:51;;;;;;;2.88;2.55;;;15.80;90.30;;;;;;5009527;28;20089;-70
2021/08/10 06:49:17;;;;;;;3.70;2.30;;;15.90;90.30;;;;;;5012354;28;20049;-70
2021/08/10 06:51:42;;;;;;;3.92;2.20;;;16.00;90.30;;;;;;5010946;28;20030;-70
2021/08/10 06:54:08;;;;;;;3.42;2.20;;;16.10;90.20;;;;;;5019820;28;20029;-70
2021/08/10 06:56:33;;;;;;;5.85;2.22;;;16.20;90.20;;;;;;5028894;28;20029;-70
2021/08/10 06:58:59;;;;;;;3.42;2.40;;;16.30;90.20;;;;;;5011598;28;20386;-70
2021/08/10 07:01:25;;;;;;;3.95;2.25;;;16.40;90.10;;;;;;5011392;28;20061;-70
2021/08/10 07:03:50;;;;;;;6.55;4.97;;;16.50;90.10;;;;;;5011883;28;20034;-70
2021/08/10 07:06:16;;;;;;;6.10;2.20;;;16.50;90.00;;;;;;5011044;28;20079;-70
2021/08/10 07:08:41;;;;;;;5.72;2.50;;;16.60;90.00;;;;;;4993782;28;20037;-70
2021/08/10 07:11:07;;;;;;;2.30;1.92;;;16.60;90.00;;;;;;5011745;28;20363;-70
2021/08/10 07:13:33;;;;;;;4.80;2.20;;;16.70;90.00;;;;;;5011678;28;20105;-70
2021/08/10 07:15:58;;;;;;;3.67;1.95;;;16.80;90.00;;;;;;5014176;28;20021;-74
2021/08/10 07:18:24;;;;;;;2.13;1.90;;;16.90;89.90;;;;;;5011990;28;20030;-74
2021/08/10 07:20:49;;;;;;;2.85;1.83;;;17.00;89.70;;;;;;5010842;28;20022;-72
2021/08/10 07:23:15;;;;;;;6.45;1.98;;;17.10;89.50;;;;;;5010686;28;20030;-69
2021/08/10 07:25:41;;;;;;;3.55;1.70;;;17.20;89.20;;;;;;5010791;28;20034;-69
2021/08/10 07:28:06;;;;;;;2.60;2.05;;;17.30;89.00;;;;;;5010775;28;20026;-69
2021/08/10 07:30:32;;;;;;;5.28;1.85;;;17.50;88.80;;;;;;5014060;28;20112;-69
2021/08/10 07:32:57;;;;;;;5.15;1.90;;;17.70;88.40;;;;;;5031178;28;20450;-69
2021/08/10 07:35:23;;;;;;;4.03;1.85;;;17.80;87.80;;;;;;5021875;28;20033;-69
2021/08/10 07:37:49;;;;;;;3.75;1.88;;;18.10;87.30;;;;;;5011056;28;20490;-69
2021/08/10 07:40:15;;;;;;;3.67;1.60;;;18.30;86.70;;;;;;4993991;28;20438;-69
2021/08/10 07:42:41;;;;;;;5.18;1.95;;;18.30;86.70;;;;;;5011132;28;20029;-69
2021/08/10 07:45:07;;;;;;;6.38;2.17;;;18.40;86.50;;;;;;5010353;28;20101;-69
2021/08/10 07:47:34;;;;;;;6.28;1.67;;;18.50;86.30;;;;;;5010924;28;20029;-69
2021/08/10 07:49:59;;;;;;;3.05;1.60;;;18.50;86.20;;;;;;5060037;23;20069;-63
2021/08/10 07:52:25;;;;;;;3.20;2.35;;;18.50;86.60;;;;;;4990098;28;20061;-63
2021/08/10 07:54:50;;;;;;;2.88;2.08;;;18.60;86.10;;;;;;4990567;28;20025;-64
2021/08/10 07:57:16;;;;;;;2.67;1.85;;;18.60;85.60;;;;;;4991256;28;20072;-67
2021/08/10 07:59:42;;;;;;;4.55;1.70;;;18.70;85.50;;;;;;4991474;28;20030;-64
2021/08/10 08:02:08;;;;;;;7.60;1.83;;;18.70;85.50;;;;;;4991753;28;20085;-64
2021/08/10 08:04:34;;;;;;;5.28;1.70;;;18.90;85.50;;;;;;4990723;28;20410;-66
2021/08/10 08:07:01;;;;;;;3.53;1.42;;;19.80;83.90;;;;;;4991380;28;20526;-64
2021/08/10 08:09:26;;;;;;;2.55;1.60;;;20.20;83.00;;;;;;4991533;28;20022;-64
2021/08/10 08:11:52;;;;;;;2.78;1.58;;;20.10;83.10;;;;;;4991423;28;20027;-64
2021/08/10 08:14:20;;;;;;;1.70;1.55;;;20.10;83.00;;;;;;4991327;28;20047;-66
2021/08/10 08:16:47;;;;;;;4.03;1.60;;;20.30;82.30;;;;;;4989959;28;20030;-65
2021/08/10 08:19:12;;;;;;;4.85;1.60;;;20.70;81.50;;;;;;4974060;28;20116;-65
2021/08/10 08:21:38;;;;;;;4.88;1.60;;;21.10;80.50;;;;;;4991240;28;20442;-65
2021/08/10 08:24:04;;;;;;;2.03;1.70;;;21.40;79.40;;;;;;4991758;28;20110;-65
2021/08/10 08:26:30;;;;;;;2.42;1.38;;;21.70;79.00;;;;;;4990131;28;20030;-65
2021/08/10 08:28:56;;;;;;;2.17;1.65;;;22.00;78.30;;;;;;4990687;28;20025;-65
2021/08/10 08:31:21;;;;;;;1.63;1.42;;;22.70;76.40;;;;;;4973726;28;20116;-66
2021/08/10 08:33:47;;;;;;;1.63;1.50;;;22.80;75.40;;;;;;4991478;28;20829;-64
2021/08/10 08:36:12;;;;;;;6.95;1.70;;;23.20;75.10;;;;;;4989157;28;20026;-65
2021/08/10 08:38:38;;;;;;;4.45;1.48;;;23.60;74.40;;;;;;5011066;28;20029;-65
2021/08/10 08:41:04;;;;;;;3.58;1.55;;;23.70;73.30;;;;;;4993624;28;20504;-65
2021/08/10 08:43:31;;;;;;;2.25;1.67;;;23.90;72.30;;;;;;5010738;28;20112;-66
2021/08/10 08:45:56;;;;;;;4.97;1.90;;;23.80;72.40;;;;;;4996195;28;20031;-66
2021/08/10 08:48:24;;;;;;;3.13;1.50;;;24.10;72.50;;;;;;4973228;28;20065;-67
2021/08/10 08:50:50;;;;;;;6.38;1.90;;;24.40;70.50;;;;;;4998291;28;20042;-65
2021/08/10 08:53:16;;;;;;;3.85;1.80;;;24.40;69.90;;;;;;4973748;28;20027;-64
2021/08/10 08:55:44;;;;;;;3.40;1.48;;;24.60;69.50;;;;;;4990218;28;20022;-65
2021/08/10 08:58:11;;;;;;;4.80;1.60;;;25.00;69.40;;;;;;4971138;28;20034;-65
2021/08/10 09:00:37;;;;;;;4.82;1.50;;;25.60;69.10;;;;;;4973302;28;20035;-66
2021/08/10 09:03:03;;;;;;;5.13;1.70;;;26.10;67.20;;;;;;4992062;28;20081;-69
2021/08/10 09:05:29;;;;;;;2.45;1.63;;;26.10;66.50;;;;;;5009418;28;20081;-70
2021/08/10 09:07:58;;;;;;;4.35;1.20;;;26.30;65.60;;;;;;4993057;28;20062;-70
2021/08/10 09:10:29;;;;;;;3.25;1.42;;;26.20;65.50;;;;;;4993092;28;20033;-70
2021/08/10 09:12:56;;;;;;;2.30;1.50;;;26.50;64.20;;;;;;4994711;28;20046;-68
2021/08/10 09:15:32;;;;;;;2.20;1.33;;;26.70;64.00;;;;;;4975438;28;20030;-69
2021/08/10 09:18:18;;;;;;;2.03;1.40;;;26.90;63.10;;;;;;4982801;28;20081;-70
2021/08/10 09:21:05;;;;;;;3.53;1.63;;;27.10;63.00;;;;;;4969853;28;20109;-69
2021/08/10 09:23:51;;;;;;;7.57;1.40;;;27.20;62.70;;;;;;4976056;28;20033;-70
2021/08/10 09:26:22;;;;;;;2.50;1.25;;;27.10;63.00;;;;;;4992524;28;20022;-69
2021/08/10 09:28:50;;;;;;;2.92;1.60;;;27.10;62.10;;;;;;4992078;28;20054;-70
2021/08/10 09:31:34;;;;;;;5.68;1.67;;;26.90;62.10;;;;;;4993060;28;20105;-68
2021/08/10 09:34:07;;;;;;;3.05;1.45;;;26.40;61.80;;;;;;4985622;28;20101;-69
2021/08/10 09:36:34;;;;;;;4.22;1.40;;;25.90;62.10;;;;;;4989037;28;20027;-68
2021/08/10 09:39:01;;;;;;;3.92;1.17;;;25.60;62.80;;;;;;4993687;28;20022;-70
2021/08/10 09:41:27;;;;;;;2.25;1.17;;;25.40;62.20;;;;;;4993808;28;20105;-68
2021/08/10 09:44:11;;;;;;;3.08;1.30;;;25.30;61.80;;;;;;4993180;28;20127;-66
2021/08/10 09:46:38;;;;;;;2.83;1.10;;;25.50;61.40;;;;;;4976124;28;20040;-69
2021/08/10 09:49:08;;;;;;;2.10;1.10;;;25.50;62.20;;;;;;4971642;28;20552;-69
2021/08/10 09:51:43;;;;;;;2.38;1.20;;;25.80;61.60;;;;;;4991634;28;20466;-70
2021/08/10 09:54:14;;;;;;;2.05;0.90;;;26.00;60.50;;;;;;4982304;28;20082;-67
2021/08/10 09:56:58;;;;;;;2.55;1.30;;;26.10;60.80;;;;;;4990783;28;20433;-67
2021/08/10 09:59:27;;;;;;;2.75;1.27;;;26.20;60.10;;;;;;4993670;28;20352;-69
2021/08/10 10:02:00;;;;;;;1.75;0.90;;;26.30;59.70;;;;;;4992865;28;20034;-70
2021/08/10 10:04:31;;;;;;;2.22;1.00;;;26.10;59.50;;;;;;4992893;28;20030;-69
2021/08/10 10:07:07;;;;;;;3.70;1.08;;;26.00;59.40;;;;;;4975116;28;20026;-70
2021/08/10 10:09:34;;;;;;;3.35;1.35;;;26.00;59.90;;;;;;4989552;28;20080;-69
2021/08/10 10:12:00;;;;;;;3.47;1.15;;;26.00;59.20;;;;;;4992396;28;20053;-70
2021/08/10 10:14:27;;;;;;;1.58;1.05;;;25.90;59.40;;;;;;4992627;28;20018;-69
2021/08/10 10:16:53;;;;;;;5.10;1.13;;;26.00;59.90;;;;;;4970222;28;20153;-69
2021/08/10 10:19:21;;;;;;;5.38;1.30;;;26.10;60.20;;;;;;4988319;28;20114;-69
2021/08/10 10:21:55;;;;;;;3.17;0.95;;;26.30;59.00;;;;;;4974962;28;20030;-69
2021/08/10 10:24:23;;;;;;;2.10;1.02;;;26.30;57.90;;;;;;4983314;28;20085;-69
2021/08/10 10:26:54;;;;;;;2.95;1.00;;;26.40;58.50;;;;;;4990949;28;20019;-69
2021/08/10 10:29:20;;;;;;;1.48;0.90;;;26.50;58.50;;;;;;5012617;28;20105;-70
2021/08/10 10:31:46;;;;;;;3.85;1.05;;;26.50;58.30;;;;;;4994067;28;20496;-69
2021/08/10 10:34:13;;;;;;;13.70;1.05;;;26.40;57.80;;;;;;4991463;28;20031;-70
2021/08/10 10:36:43;;;;;;;5.30;4.63;;;26.40;57.90;;;;;;4991658;28;20029;-66
2021/08/10 10:39:10;;;;;;;1.67;1.13;;;26.40;57.40;;;;;;4992671;28;20046;-69
2021/08/10 10:41:36;;;;;;;4.68;1.23;;;26.50;57.30;;;;;;4991918;28;20026;-70
2021/08/10 10:44:02;;;;;;;1.83;1.00;;;26.50;56.30;;;;;;4992498;28;20061;-69
2021/08/10 10:46:37;;;;;;;1.88;1.20;;;26.50;55.80;;;;;;4991270;28;20023;-69
2021/08/10 10:49:04;;;;;;;3.55;1.20;;;26.30;55.50;;;;;;4975093;28;20415;-70
2021/08/10 10:51:35;;;;;;;3.10;1.30;;;26.10;55.20;;;;;;4992576;28;20080;-69
2021/08/10 10:54:22;;;;;;;2.50;1.20;;;25.90;55.50;;;;;;4975403;28;20097;-69
2021/08/10 10:56:48;;;;;;;2.75;1.30;;;25.70;56.00;;;;;;4991211;28;20053;-68
2021/08/10 10:59:21;;;;;;;4.75;1.20;;;25.60;57.60;;;;;;4992010;28;20108;-68
2021/08/10 11:01:47;;;;;;;1.92;1.08;;;25.60;58.30;;;;;;4982233;28;20026;-67
2021/08/10 11:04:13;;;;;;;4.07;1.65;;;25.40;58.40;;;;;;4991102;28;20483;-67
2021/08/10 11:06:46;;;;;;;2.50;1.10;;;25.20;59.30;;;;;;4990545;28;20030;-67
2021/08/10 11:09:37;;;;;;;3.90;1.23;;;25.10;59.60;;;;;;4991766;28;20037;-68
2021/08/10 11:12:32;;;;;;;4.10;1.23;;;24.80;59.60;;;;;;4993063;28;20026;-69
2021/08/10 11:14:58;;;;;;;2.97;1.00;;;24.60;61.40;;;;;;4991045;28;20126;-68
2021/08/10 11:17:24;;;;;;;4.55;1.45;;;24.40;62.10;;;;;;4991479;28;20105;-69
2021/08/10 11:19:51;;;;;;;3.33;1.40;;;24.40;63.30;;;;;;4974399;28;20034;-68
2021/08/10 11:22:17;;;;;;;3.45;1.40;;;24.40;63.30;;;;;;4974270;28;20033;-69
2021/08/10 11:24:44;;;;;;;4.95;1.45;;;24.30;64.50;;;;;;4974843;28;20034;-68
2021/08/10 11:27:28;;;;;;;3.55;1.25;;;24.20;65.30;;;;;;4980759;28;20069;-69
2021/08/10 11:29:54;;;;;;;1.45;1.10;;;24.20;65.10;;;;;;4990473;28;20549;-69
2021/08/10 11:32:46;;;;;;;2.38;1.20;;;24.10;64.50;;;;;;4990917;28;20038;-68
2021/08/10 11:35:33;;;;;;;4.67;1.30;;;23.90;64.70;;;;;;4990364;28;20559;-69
2021/08/10 11:38:06;;;;;;;2.42;1.50;;;23.80;65.90;;;;;;4974121;28;20498;-70
2021/08/10 11:40:50;;;;;;;5.03;1.33;;;23.80;65.70;;;;;;4991401;28;20397;-68
2021/08/10 11:43:16;;;;;;;2.65;1.40;;;23.70;66.30;;;;;;4990990;28;20030;-69
2021/08/10 11:45:42;;;;;;;3.65;1.40;;;23.70;66.60;;;;;;4991908;28;20724;-69
2021/08/10 11:48:08;;;;;;;2.55;1.15;;;23.80;67.10;;;;;;4991011;28;20459;-69
2021/08/10 11:50:35;;;;;;;3.03;1.10;;;23.80;67.00;;;;;;4990881;28;20410;-69
2021/08/10 11:53:02;;;;;;;3.38;1.23;;;23.80;67.10;;;;;;4990801;28;20022;-69
2021/08/10 11:55:36;;;;;;;2.92;1.30;;;23.80;67.00;;;;;;4972752;28;20023;-69
2021/08/10 11:58:06;;;;;;;4.25;1.45;;;23.80;67.20;;;;;;4990077;28;20028;-67
2021/08/10 12:00:35;;;;;;;1.88;1.30;;;23.70;67.30;;;;;;4990749;28;20041;-69
2021/08/10 12:03:02;;;;;;;23.73;2.00;;;23.60;66.70;;;;;;4990943;28;20030;-67
2021/08/10 12:05:29;;;;;;;2.58;1.38;;;23.60;67.30;;;;;;4990585;28;20034;-69
2021/08/10 12:08:00;;;;;;;2.15;1.38;;;23.50;68.00;;;;;;4973366;28;20038;-69
2021/08/10 12:10:32;;;;;;;7.30;1.55;;;23.50;67.90;;;;;;4991074;28;20026;-68
2021/08/10 12:13:00;;;;;;;3.47;1.48;;;23.50;67.90;;;;;;4991069;28;20101;-69
2021/08/10 12:15:41;;;;;;;3.85;1.70;;;23.50;68.50;;;;;;4990268;28;20030;-69
2021/08/10 12:18:07;;;;;;;2.55;1.60;;;23.60;67.90;;;;;;4973612;28;20415;-70
2021/08/10 12:20:33;;;;;;;2.55;1.30;;;23.70;67.40;;;;;;4991389;28;20114;-69
2021/08/10 12:23:00;;;;;;;3.25;1.50;;;23.70;67.70;;;;;;4991138;28;20026;-68
2021/08/10 12:25:26;;;;;;;1.95;1.13;;;23.70;67.50;;;;;;4988369;28;20084;-68
2021/08/10 12:28:01;;;;;;;2.65;1.30;;;23.70;67.20;;;;;;4986846;28;20031;-68
2021/08/10 12:30:29;;;;;;;3.05;1.40;;;23.60;67.30;;;;;;4990859;28;20029;-68
2021/08/10 12:33:11;;;;;;;4.13;1.50;;;23.60;67.20;;;;;;4991014;28;20049;-68
2021/08/10 12:35:37;;;;;;;2.75;1.35;;;23.60;66.90;;;;;;4990086;28;20062;-69
2021/08/10 12:38:04;;;;;;;6.07;1.40;;;23.60;67.20;;;;;;4990718;28;20077;-69
2021/08/10 12:40:29;;;;;;;2.75;1.55;;;23.70;67.60;;;;;;4995995;28;20060;-69
2021/08/10 12:42:55;;;;;;;2.45;1.58;;;23.80;67.30;;;;;;5011210;28;20370;-69
2021/08/10 12:45:21;;;;;;;4.10;1.60;;;23.90;67.40;;;;;;4998483;28;20034;-67
2021/08/10 12:47:46;;;;;;;2.92;1.83;;;24.00;67.80;;;;;;5004085;28;20041;-68
2021/08/10 12:50:29;;;;;;;3.75;1.60;;;24.20;67.80;;;;;;4976885;28;20027;-66
2021/08/10 12:52:56;;;;;;;2.65;1.60;;;24.30;67.30;;;;;;4994723;28;20018;-68
2021/08/10 12:55:22;;;;;;;4.60;2.13;;;24.30;67.10;;;;;;4975817;28;20026;-68